sensor_id;sensor_type;location;lat;lon;timestamp;P1;durP1;ratioP1;P2;durP2;ratioP2
51987;SDS011;38003;52.012;4.346;2023-01-05T00:01:52;40.47;;;36.67;;
51987;SDS011;38003;52.012;4.346;2023-01-05T00:04:21;36.80;;;33.03;;
51987;SDS011;38003;52.012;4.346;2023-01-05T00:06:49;42.73;;;37.43;;
51987;SDS011;38003;52.012;4.346;2023-01-05T00:09:17;44.20;;;38.37;;
51987;SDS011;38003;52.012;4.346;2023-01-05T00:11:45;45.70;;;39.43;;
51987;SDS011;38003;52.012;4.346;2023-01-05T00:14:32;52.37;;;47.20;;
51987;SDS011;38003;52.012;4.346;2023-01-05T00:17:32;45.93;;;39.20;;
51987;SDS011;38003;52.012;4.346;2023-01-05T00:20:18;51.73;;;46.47;;
51987;SDS011;38003;52.012;4.346;2023-01-05T00:23:05;51.50;;;47.10;;
51987;SDS011;38003;52.012;4.346;2023-01-05T00:25:35;51.20;;;46.93;;
51987;SDS011;38003;52.012;4.346;2023-01-05T00:28:04;59.70;;;55.23;;
51987;SDS011;38003;52.012;4.346;2023-01-05T00:30:35;56.13;;;50.40;;
51987;SDS011;38003;52.012;4.346;2023-01-05T00:33:06;58.00;;;52.50;;
51987;SDS011;38003;52.012;4.346;2023-01-05T00:35:34;59.47;;;54.50;;
51987;SDS011;38003;52.012;4.346;2023-01-05T00:38:03;59.10;;;53.93;;
51987;SDS011;38003;52.012;4.346;2023-01-05T00:40:32;73.90;;;68.20;;
51987;SDS011;38003;52.012;4.346;2023-01-05T00:43:02;71.47;;;65.10;;
51987;SDS011;38003;52.012;4.346;2023-01-05T00:45:30;68.23;;;62.67;;
51987;SDS011;38003;52.012;4.346;2023-01-05T00:47:59;70.33;;;63.93;;
51987;SDS011;38003;52.012;4.346;2023-01-05T00:50:27;76.73;;;70.57;;
51987;SDS011;38003;52.012;4.346;2023-01-05T00:52:55;91.33;;;84.87;;
51987;SDS011;38003;52.012;4.346;2023-01-05T00:55:23;103.93;;;96.90;;
51987;SDS011;38003;52.012;4.346;2023-01-05T00:57:50;115.33;;;108.37;;
51987;SDS011;38003;52.012;4.346;2023-01-05T01:00:18;133.80;;;124.77;;
51987;SDS011;38003;52.012;4.346;2023-01-05T01:02:46;138.53;;;129.20;;
51987;SDS011;38003;52.012;4.346;2023-01-05T01:05:18;153.87;;;144.80;;
51987;SDS011;38003;52.012;4.346;2023-01-05T01:07:46;172.50;;;161.67;;
51987;SDS011;38003;52.012;4.346;2023-01-05T01:10:15;200.33;;;189.80;;
51987;SDS011;38003;52.012;4.346;2023-01-05T01:12:43;170.77;;;161.27;;
51987;SDS011;38003;52.012;4.346;2023-01-05T01:15:10;178.40;;;167.70;;
51987;SDS011;38003;52.012;4.346;2023-01-05T01:17:38;160.73;;;151.37;;
51987;SDS011;38003;52.012;4.346;2023-01-05T01:20:07;160.70;;;151.53;;
51987;SDS011;38003;52.012;4.346;2023-01-05T01:22:37;169.93;;;160.03;;
51987;SDS011;38003;52.012;4.346;2023-01-05T01:25:05;166.27;;;156.57;;
51987;SDS011;38003;52.012;4.346;2023-01-05T01:27:33;145.23;;;136.80;;
51987;SDS011;38003;52.012;4.346;2023-01-05T01:30:01;128.47;;;120.50;;
51987;SDS011;38003;52.012;4.346;2023-01-05T01:32:29;121.87;;;114.33;;
51987;SDS011;38003;52.012;4.346;2023-01-05T01:34:57;122.63;;;115.33;;
51987;SDS011;38003;52.012;4.346;2023-01-05T01:37:24;118.93;;;111.27;;
51987;SDS011;38003;52.012;4.346;2023-01-05T01:39:54;126.67;;;119.07;;
51987;SDS011;38003;52.012;4.346;2023-01-05T01:42:22;116.37;;;109.67;;
51987;SDS011;38003;52.012;4.346;2023-01-05T01:47:27;88.27;;;82.17;;
51987;SDS011;38003;52.012;4.346;2023-01-05T01:50:01;81.20;;;75.57;;
51987;SDS011;38003;52.012;4.346;2023-01-05T01:52:33;75.43;;;70.20;;
51987;SDS011;38003;52.012;4.346;2023-01-05T01:55:03;60.50;;;55.27;;
51987;SDS011;38003;52.012;4.346;2023-01-05T01:57:33;61.33;;;56.63;;
51987;SDS011;38003;52.012;4.346;2023-01-05T02:00:03;61.57;;;56.73;;
51987;SDS011;38003;52.012;4.346;2023-01-05T02:02:33;69.20;;;64.37;;
51987;SDS011;38003;52.012;4.346;2023-01-05T02:05:02;63.37;;;59.53;;
51987;SDS011;38003;52.012;4.346;2023-01-05T02:07:33;53.23;;;49.53;;
51987;SDS011;38003;52.012;4.346;2023-01-05T02:10:05;63.80;;;58.43;;
51987;SDS011;38003;52.012;4.346;2023-01-05T02:12:37;61.43;;;56.40;;
51987;SDS011;38003;52.012;4.346;2023-01-05T02:15:17;68.80;;;63.77;;
51987;SDS011;38003;52.012;4.346;2023-01-05T02:17:57;67.80;;;62.27;;
51987;SDS011;38003;52.012;4.346;2023-01-05T02:20:47;68.57;;;63.87;;
51987;SDS011;38003;52.012;4.346;2023-01-05T02:23:37;67.93;;;62.80;;
51987;SDS011;38003;52.012;4.346;2023-01-05T02:29:43;78.23;;;72.27;;
51987;SDS011;38003;52.012;4.346;2023-01-05T02:32:33;80.70;;;74.17;;
51987;SDS011;38003;52.012;4.346;2023-01-05T02:35:09;82.43;;;76.70;;
51987;SDS011;38003;52.012;4.346;2023-01-05T02:37:44;77.53;;;72.33;;
51987;SDS011;38003;52.012;4.346;2023-01-05T02:40:16;75.23;;;69.90;;
51987;SDS011;38003;52.012;4.346;2023-01-05T02:42:48;71.97;;;66.00;;
51987;SDS011;38003;52.012;4.346;2023-01-05T02:45:20;74.83;;;69.10;;
51987;SDS011;38003;52.012;4.346;2023-01-05T02:47:49;61.80;;;56.73;;
51987;SDS011;38003;52.012;4.346;2023-01-05T02:50:18;61.90;;;56.17;;
51987;SDS011;38003;52.012;4.346;2023-01-05T02:52:55;53.00;;;48.40;;
51987;SDS011;38003;52.012;4.346;2023-01-05T02:55:27;54.13;;;50.00;;
51987;SDS011;38003;52.012;4.346;2023-01-05T02:58:01;51.67;;;47.80;;
51987;SDS011;38003;52.012;4.346;2023-01-05T03:00:34;54.20;;;50.17;;
51987;SDS011;38003;52.012;4.346;2023-01-05T03:03:08;58.97;;;53.73;;
51987;SDS011;38003;52.012;4.346;2023-01-05T03:05:43;57.47;;;52.60;;
51987;SDS011;38003;52.012;4.346;2023-01-05T03:08:16;62.03;;;57.57;;
51987;SDS011;38003;52.012;4.346;2023-01-05T03:10:57;61.70;;;56.70;;
51987;SDS011;38003;52.012;4.346;2023-01-05T03:13:46;66.87;;;61.73;;
51987;SDS011;38003;52.012;4.346;2023-01-05T03:16:19;74.37;;;68.73;;
51987;SDS011;38003;52.012;4.346;2023-01-05T03:18:54;72.00;;;66.23;;
51987;SDS011;38003;52.012;4.346;2023-01-05T03:21:40;88.20;;;82.00;;
51987;SDS011;38003;52.012;4.346;2023-01-05T03:24:27;99.50;;;93.80;;
51987;SDS011;38003;52.012;4.346;2023-01-05T03:27:13;109.27;;;103.27;;
51987;SDS011;38003;52.012;4.346;2023-01-05T03:29:59;122.87;;;115.17;;
51987;SDS011;38003;52.012;4.346;2023-01-05T03:32:45;131.73;;;124.67;;
51987;SDS011;38003;52.012;4.346;2023-01-05T03:35:36;126.33;;;119.20;;
51987;SDS011;38003;52.012;4.346;2023-01-05T03:38:10;141.67;;;132.80;;
51987;SDS011;38003;52.012;4.346;2023-01-05T03:40:44;130.87;;;123.73;;
51987;SDS011;38003;52.012;4.346;2023-01-05T03:43:12;139.17;;;131.20;;
51987;SDS011;38003;52.012;4.346;2023-01-05T03:45:41;145.63;;;137.13;;
51987;SDS011;38003;52.012;4.346;2023-01-05T03:48:11;145.50;;;136.10;;
51987;SDS011;38003;52.012;4.346;2023-01-05T03:50:40;153.77;;;144.97;;
51987;SDS011;38003;52.012;4.346;2023-01-05T03:53:08;135.20;;;127.43;;
51987;SDS011;38003;52.012;4.346;2023-01-05T03:55:36;145.73;;;136.73;;
51987;SDS011;38003;52.012;4.346;2023-01-05T03:58:04;139.77;;;132.03;;
51987;SDS011;38003;52.012;4.346;2023-01-05T04:00:32;141.13;;;132.97;;
51987;SDS011;38003;52.012;4.346;2023-01-05T04:03:00;150.00;;;141.60;;
51987;SDS011;38003;52.012;4.346;2023-01-05T04:05:28;164.97;;;155.67;;
51987;SDS011;38003;52.012;4.346;2023-01-05T04:07:57;155.47;;;146.80;;
51987;SDS011;38003;52.012;4.346;2023-01-05T04:10:25;150.03;;;141.67;;
51987;SDS011;38003;52.012;4.346;2023-01-05T04:12:53;158.10;;;149.07;;
51987;SDS011;38003;52.012;4.346;2023-01-05T04:15:21;154.97;;;145.63;;
51987;SDS011;38003;52.012;4.346;2023-01-05T04:17:49;157.53;;;148.60;;
51987;SDS011;38003;52.012;4.346;2023-01-05T04:20:17;156.77;;;147.23;;
51987;SDS011;38003;52.012;4.346;2023-01-05T04:22:45;152.67;;;143.90;;
51987;SDS011;38003;52.012;4.346;2023-01-05T04:25:14;148.30;;;139.90;;
51987;SDS011;38003;52.012;4.346;2023-01-05T04:27:42;139.10;;;131.10;;
51987;SDS011;38003;52.012;4.346;2023-01-05T04:30:10;155.07;;;146.00;;
51987;SDS011;38003;52.012;4.346;2023-01-05T04:32:38;158.20;;;149.57;;
51987;SDS011;38003;52.012;4.346;2023-01-05T04:35:06;155.63;;;146.07;;
51987;SDS011;38003;52.012;4.346;2023-01-05T04:37:36;156.50;;;147.83;;
51987;SDS011;38003;52.012;4.346;2023-01-05T04:40:05;172.00;;;162.90;;
51987;SDS011;38003;52.012;4.346;2023-01-05T04:42:35;177.23;;;166.87;;
51987;SDS011;38003;52.012;4.346;2023-01-05T04:45:03;157.30;;;148.00;;
51987;SDS011;38003;52.012;4.346;2023-01-05T04:47:31;185.50;;;175.07;;
51987;SDS011;38003;52.012;4.346;2023-01-05T04:49:59;175.10;;;164.73;;
51987;SDS011;38003;52.012;4.346;2023-01-05T04:52:27;174.77;;;164.37;;
51987;SDS011;38003;52.012;4.346;2023-01-05T04:54:55;172.43;;;162.90;;
51987;SDS011;38003;52.012;4.346;2023-01-05T04:57:22;175.50;;;165.97;;
51987;SDS011;38003;52.012;4.346;2023-01-05T04:59:52;172.83;;;163.37;;
51987;SDS011;38003;52.012;4.346;2023-01-05T05:02:19;189.70;;;179.23;;
51987;SDS011;38003;52.012;4.346;2023-01-05T05:04:48;193.23;;;182.23;;
51987;SDS011;38003;52.012;4.346;2023-01-05T05:07:15;182.10;;;171.87;;
51987;SDS011;38003;52.012;4.346;2023-01-05T05:09:43;187.00;;;176.57;;
51987;SDS011;38003;52.012;4.346;2023-01-05T05:12:11;175.43;;;165.33;;
51987;SDS011;38003;52.012;4.346;2023-01-05T05:14:39;199.23;;;188.70;;
51987;SDS011;38003;52.012;4.346;2023-01-05T05:17:09;207.40;;;196.33;;
51987;SDS011;38003;52.012;4.346;2023-01-05T05:19:36;189.47;;;179.53;;
51987;SDS011;38003;52.012;4.346;2023-01-05T05:22:04;189.17;;;178.30;;
51987;SDS011;38003;52.012;4.346;2023-01-05T05:24:32;204.30;;;193.97;;
51987;SDS011;38003;52.012;4.346;2023-01-05T05:27:00;196.20;;;185.23;;
51987;SDS011;38003;52.012;4.346;2023-01-05T05:29:28;174.67;;;164.90;;
51987;SDS011;38003;52.012;4.346;2023-01-05T05:31:56;169.20;;;159.47;;
51987;SDS011;38003;52.012;4.346;2023-01-05T05:34:25;162.37;;;152.63;;
51987;SDS011;38003;52.012;4.346;2023-01-05T05:36:53;157.80;;;148.30;;
51987;SDS011;38003;52.012;4.346;2023-01-05T05:39:21;158.60;;;148.63;;
51987;SDS011;38003;52.012;4.346;2023-01-05T05:41:49;156.77;;;148.87;;
51987;SDS011;38003;52.012;4.346;2023-01-05T05:44:17;152.57;;;143.70;;
51987;SDS011;38003;52.012;4.346;2023-01-05T05:46:44;158.63;;;149.63;;
51987;SDS011;38003;52.012;4.346;2023-01-05T05:49:12;157.77;;;148.50;;
51987;SDS011;38003;52.012;4.346;2023-01-05T05:51:42;162.60;;;153.30;;
51987;SDS011;38003;52.012;4.346;2023-01-05T05:54:10;153.77;;;144.20;;
51987;SDS011;38003;52.012;4.346;2023-01-05T05:56:37;161.37;;;150.70;;
51987;SDS011;38003;52.012;4.346;2023-01-05T05:59:05;164.07;;;154.47;;
51987;SDS011;38003;52.012;4.346;2023-01-05T06:01:33;145.43;;;136.77;;
51987;SDS011;38003;52.012;4.346;2023-01-05T06:04:01;134.07;;;125.37;;
51987;SDS011;38003;52.012;4.346;2023-01-05T06:06:29;136.20;;;127.03;;
51987;SDS011;38003;52.012;4.346;2023-01-05T06:08:58;134.57;;;125.67;;
51987;SDS011;38003;52.012;4.346;2023-01-05T06:11:26;145.63;;;136.67;;
51987;SDS011;38003;52.012;4.346;2023-01-05T06:13:54;137.30;;;128.83;;
51987;SDS011;38003;52.012;4.346;2023-01-05T06:16:22;138.60;;;130.20;;
51987;SDS011;38003;52.012;4.346;2023-01-05T06:18:50;122.00;;;114.00;;
51987;SDS011;38003;52.012;4.346;2023-01-05T06:21:18;126.23;;;118.00;;
51987;SDS011;38003;52.012;4.346;2023-01-05T06:23:47;120.40;;;113.10;;
51987;SDS011;38003;52.012;4.346;2023-01-05T06:26:16;117.73;;;110.20;;
51987;SDS011;38003;52.012;4.346;2023-01-05T06:28:44;124.07;;;114.70;;
51987;SDS011;38003;52.012;4.346;2023-01-05T06:31:12;125.47;;;117.43;;
51987;SDS011;38003;52.012;4.346;2023-01-05T06:33:39;122.37;;;114.67;;
51987;SDS011;38003;52.012;4.346;2023-01-05T06:36:07;132.43;;;123.17;;
51987;SDS011;38003;52.012;4.346;2023-01-05T06:38:35;125.67;;;117.37;;
51987;SDS011;38003;52.012;4.346;2023-01-05T06:41:03;120.57;;;113.00;;
51987;SDS011;38003;52.012;4.346;2023-01-05T06:43:33;127.97;;;119.53;;
51987;SDS011;38003;52.012;4.346;2023-01-05T06:46:01;137.93;;;128.83;;
51987;SDS011;38003;52.012;4.346;2023-01-05T06:48:29;143.53;;;134.83;;
51987;SDS011;38003;52.012;4.346;2023-01-05T06:50:57;140.90;;;132.17;;
51987;SDS011;38003;52.012;4.346;2023-01-05T06:53:25;133.43;;;123.77;;
51987;SDS011;38003;52.012;4.346;2023-01-05T06:55:52;135.33;;;126.80;;
51987;SDS011;38003;52.012;4.346;2023-01-05T06:58:20;137.93;;;129.43;;
51987;SDS011;38003;52.012;4.346;2023-01-05T07:00:49;135.30;;;126.97;;
51987;SDS011;38003;52.012;4.346;2023-01-05T07:03:20;141.57;;;132.30;;
51987;SDS011;38003;52.012;4.346;2023-01-05T07:05:48;155.93;;;146.57;;
51987;SDS011;38003;52.012;4.346;2023-01-05T07:08:17;164.27;;;154.50;;
51987;SDS011;38003;52.012;4.346;2023-01-05T07:10:45;142.43;;;133.77;;
51987;SDS011;38003;52.012;4.346;2023-01-05T07:13:13;145.90;;;137.20;;
51987;SDS011;38003;52.012;4.346;2023-01-05T07:15:41;145.67;;;136.83;;
51987;SDS011;38003;52.012;4.346;2023-01-05T07:18:10;142.10;;;133.13;;
51987;SDS011;38003;52.012;4.346;2023-01-05T07:20:38;167.77;;;158.13;;
51987;SDS011;38003;52.012;4.346;2023-01-05T07:23:06;158.00;;;147.97;;
51987;SDS011;38003;52.012;4.346;2023-01-05T07:25:34;178.33;;;168.93;;
51987;SDS011;38003;52.012;4.346;2023-01-05T07:28:01;168.13;;;157.47;;
51987;SDS011;38003;52.012;4.346;2023-01-05T07:30:29;171.27;;;161.87;;
51987;SDS011;38003;52.012;4.346;2023-01-05T07:32:57;167.77;;;158.07;;
51987;SDS011;38003;52.012;4.346;2023-01-05T07:35:27;166.70;;;156.83;;
51987;SDS011;38003;52.012;4.346;2023-01-05T07:37:55;167.03;;;157.67;;
51987;SDS011;38003;52.012;4.346;2023-01-05T07:40:23;176.13;;;166.73;;
51987;SDS011;38003;52.012;4.346;2023-01-05T07:42:51;185.40;;;174.60;;
51987;SDS011;38003;52.012;4.346;2023-01-05T07:45:19;191.17;;;180.50;;
51987;SDS011;38003;52.012;4.346;2023-01-05T07:47:47;182.10;;;171.13;;
51987;SDS011;38003;52.012;4.346;2023-01-05T07:50:15;199.50;;;188.90;;
51987;SDS011;38003;52.012;4.346;2023-01-05T07:52:45;188.50;;;177.60;;
51987;SDS011;38003;52.012;4.346;2023-01-05T07:55:13;208.13;;;197.20;;
51987;SDS011;38003;52.012;4.346;2023-01-05T07:57:42;207.17;;;195.70;;
51987;SDS011;38003;52.012;4.346;2023-01-05T08:00:10;223.43;;;211.53;;
51987;SDS011;38003;52.012;4.346;2023-01-05T08:02:40;210.10;;;199.23;;
51987;SDS011;38003;52.012;4.346;2023-01-05T08:05:09;209.67;;;199.07;;
51987;SDS011;38003;52.012;4.346;2023-01-05T08:07:36;193.77;;;182.97;;
51987;SDS011;38003;52.012;4.346;2023-01-05T08:10:06;178.23;;;167.63;;
51987;SDS011;38003;52.012;4.346;2023-01-05T08:12:54;193.87;;;183.63;;
51987;SDS011;38003;52.012;4.346;2023-01-05T08:15:45;196.73;;;185.87;;
51987;SDS011;38003;52.012;4.346;2023-01-05T08:18:16;190.77;;;180.83;;
51987;SDS011;38003;52.012;4.346;2023-01-05T08:20:48;181.20;;;170.63;;
51987;SDS011;38003;52.012;4.346;2023-01-05T08:23:17;161.03;;;152.03;;
51987;SDS011;38003;52.012;4.346;2023-01-05T08:25:53;147.80;;;138.20;;
51987;SDS011;38003;52.012;4.346;2023-01-05T08:28:21;137.30;;;128.23;;
51987;SDS011;38003;52.012;4.346;2023-01-05T08:31:00;120.83;;;113.07;;
51987;SDS011;38003;52.012;4.346;2023-01-05T08:33:28;113.83;;;106.63;;
51987;SDS011;38003;52.012;4.346;2023-01-05T08:35:56;117.27;;;109.23;;
51987;SDS011;38003;52.012;4.346;2023-01-05T08:38:24;112.27;;;105.20;;
51987;SDS011;38003;52.012;4.346;2023-01-05T08:40:56;105.60;;;98.73;;
51987;SDS011;38003;52.012;4.346;2023-01-05T08:43:25;110.67;;;103.60;;
51987;SDS011;38003;52.012;4.346;2023-01-05T08:45:53;116.33;;;108.87;;
51987;SDS011;38003;52.012;4.346;2023-01-05T08:48:21;109.90;;;102.67;;
51987;SDS011;38003;52.012;4.346;2023-01-05T08:50:49;124.47;;;116.60;;
51987;SDS011;38003;52.012;4.346;2023-01-05T08:53:17;122.60;;;114.83;;
51987;SDS011;38003;52.012;4.346;2023-01-05T08:55:45;111.27;;;104.50;;
51987;SDS011;38003;52.012;4.346;2023-01-05T08:58:14;119.67;;;111.77;;
51987;SDS011;38003;52.012;4.346;2023-01-05T09:00:42;123.80;;;116.07;;
51987;SDS011;38003;52.012;4.346;2023-01-05T09:03:10;115.63;;;108.40;;
51987;SDS011;38003;52.012;4.346;2023-01-05T09:05:38;115.87;;;107.70;;
51987;SDS011;38003;52.012;4.346;2023-01-05T09:08:06;120.47;;;112.60;;
51987;SDS011;38003;52.012;4.346;2023-01-05T09:10:33;124.57;;;116.87;;
51987;SDS011;38003;52.012;4.346;2023-01-05T09:13:01;122.43;;;114.77;;
51987;SDS011;38003;52.012;4.346;2023-01-05T09:15:31;123.90;;;116.00;;
51987;SDS011;38003;52.012;4.346;2023-01-05T09:17:58;119.70;;;112.43;;
51987;SDS011;38003;52.012;4.346;2023-01-05T09:20:26;107.13;;;99.00;;
51987;SDS011;38003;52.012;4.346;2023-01-05T09:23:01;116.70;;;108.50;;
51987;SDS011;38003;52.012;4.346;2023-01-05T09:25:29;118.30;;;109.83;;
51987;SDS011;38003;52.012;4.346;2023-01-05T09:27:57;118.27;;;110.47;;
51987;SDS011;38003;52.012;4.346;2023-01-05T09:30:24;126.23;;;117.90;;
51987;SDS011;38003;52.012;4.346;2023-01-05T09:32:54;131.13;;;122.70;;
51987;SDS011;38003;52.012;4.346;2023-01-05T09:35:22;132.77;;;124.07;;
51987;SDS011;38003;52.012;4.346;2023-01-05T09:37:50;132.07;;;123.53;;
51987;SDS011;38003;52.012;4.346;2023-01-05T09:40:17;126.13;;;117.27;;
51987;SDS011;38003;52.012;4.346;2023-01-05T09:42:46;130.33;;;121.23;;
51987;SDS011;38003;52.012;4.346;2023-01-05T09:45:14;132.57;;;124.20;;
51987;SDS011;38003;52.012;4.346;2023-01-05T09:47:50;122.13;;;114.53;;
51987;SDS011;38003;52.012;4.346;2023-01-05T09:50:22;122.53;;;114.77;;
51987;SDS011;38003;52.012;4.346;2023-01-05T09:52:53;115.93;;;108.33;;
51987;SDS011;38003;52.012;4.346;2023-01-05T09:55:24;122.53;;;114.70;;
51987;SDS011;38003;52.012;4.346;2023-01-05T09:57:55;132.87;;;124.13;;
51987;SDS011;38003;52.012;4.346;2023-01-05T10:00:27;126.17;;;118.20;;
51987;SDS011;38003;52.012;4.346;2023-01-05T10:02:58;146.13;;;136.20;;
51987;SDS011;38003;52.012;4.346;2023-01-05T10:05:28;140.03;;;130.90;;
51987;SDS011;38003;52.012;4.346;2023-01-05T10:07:59;139.27;;;130.13;;
51987;SDS011;38003;52.012;4.346;2023-01-05T10:10:43;146.37;;;137.83;;
51987;SDS011;38003;52.012;4.346;2023-01-05T10:13:33;165.67;;;155.47;;
51987;SDS011;38003;52.012;4.346;2023-01-05T10:16:03;190.90;;;180.47;;
51987;SDS011;38003;52.012;4.346;2023-01-05T10:18:33;191.77;;;180.07;;
51987;SDS011;38003;52.012;4.346;2023-01-05T10:21:05;179.57;;;168.20;;
51987;SDS011;38003;52.012;4.346;2023-01-05T10:23:43;156.93;;;147.63;;
51987;SDS011;38003;52.012;4.346;2023-01-05T10:26:23;157.83;;;148.20;;
51987;SDS011;38003;52.012;4.346;2023-01-05T10:29:10;140.93;;;131.37;;
51987;SDS011;38003;52.012;4.346;2023-01-05T10:31:43;131.10;;;122.43;;
51987;SDS011;38003;52.012;4.346;2023-01-05T10:34:20;109.17;;;101.00;;
51987;SDS011;38003;52.012;4.346;2023-01-05T10:36:55;105.93;;;98.77;;
51987;SDS011;38003;52.012;4.346;2023-01-05T10:39:41;109.33;;;102.47;;
51987;SDS011;38003;52.012;4.346;2023-01-05T10:42:24;104.17;;;96.73;;
51987;SDS011;38003;52.012;4.346;2023-01-05T10:45:02;79.77;;;74.10;;
51987;SDS011;38003;52.012;4.346;2023-01-05T10:47:35;69.80;;;63.13;;
51987;SDS011;38003;52.012;4.346;2023-01-05T10:50:17;59.03;;;53.10;;
51987;SDS011;38003;52.012;4.346;2023-01-05T10:52:55;50.97;;;46.20;;
51987;SDS011;38003;52.012;4.346;2023-01-05T10:55:24;62.13;;;56.27;;
51987;SDS011;38003;52.012;4.346;2023-01-05T10:57:55;59.63;;;54.10;;
51987;SDS011;38003;52.012;4.346;2023-01-05T11:00:37;46.70;;;37.17;;
51987;SDS011;38003;52.012;4.346;2023-01-05T11:03:08;42.47;;;33.57;;
51987;SDS011;38003;52.012;4.346;2023-01-05T11:05:43;40.63;;;28.03;;
51987;SDS011;38003;52.012;4.346;2023-01-05T11:08:13;39.87;;;23.17;;
51987;SDS011;38003;52.012;4.346;2023-01-05T11:10:50;39.90;;;20.73;;
51987;SDS011;38003;52.012;4.346;2023-01-05T11:13:26;38.53;;;19.07;;
51987;SDS011;38003;52.012;4.346;2023-01-05T11:15:58;32.93;;;16.90;;
51987;SDS011;38003;52.012;4.346;2023-01-05T11:18:32;44.63;;;14.80;;
51987;SDS011;38003;52.012;4.346;2023-01-05T11:21:05;32.10;;;12.47;;
51987;SDS011;38003;52.012;4.346;2023-01-05T11:23:38;33.43;;;16.33;;
51987;SDS011;38003;52.012;4.346;2023-01-05T11:26:21;41.87;;;14.67;;
51987;SDS011;38003;52.012;4.346;2023-01-05T11:28:58;36.20;;;13.80;;
51987;SDS011;38003;52.012;4.346;2023-01-05T11:31:35;29.17;;;12.07;;
51987;SDS011;38003;52.012;4.346;2023-01-05T11:34:12;31.13;;;10.60;;
51987;SDS011;38003;52.012;4.346;2023-01-05T11:36:51;29.60;;;11.33;;
51987;SDS011;38003;52.012;4.346;2023-01-05T11:39:24;35.57;;;12.97;;
51987;SDS011;38003;52.012;4.346;2023-01-05T11:42:11;26.60;;;11.50;;
51987;SDS011;38003;52.012;4.346;2023-01-05T11:44:50;34.37;;;14.13;;
51987;SDS011;38003;52.012;4.346;2023-01-05T11:47:21;30.53;;;13.80;;
51987;SDS011;38003;52.012;4.346;2023-01-05T11:49:56;26.57;;;10.00;;
51987;SDS011;38003;52.012;4.346;2023-01-05T11:52:36;32.90;;;12.17;;
51987;SDS011;38003;52.012;4.346;2023-01-05T11:58:13;30.77;;;11.20;;
51987;SDS011;38003;52.012;4.346;2023-01-05T12:00:52;34.17;;;14.67;;
51987;SDS011;38003;52.012;4.346;2023-01-05T12:03:36;40.33;;;16.33;;
51987;SDS011;38003;52.012;4.346;2023-01-05T12:06:25;43.50;;;19.60;;
51987;SDS011;38003;52.012;4.346;2023-01-05T12:09:04;37.53;;;23.13;;
51987;SDS011;38003;52.012;4.346;2023-01-05T12:11:39;42.97;;;20.20;;
51987;SDS011;38003;52.012;4.346;2023-01-05T12:14:16;39.37;;;20.63;;
51987;SDS011;38003;52.012;4.346;2023-01-05T12:16:55;36.97;;;15.97;;
51987;SDS011;38003;52.012;4.346;2023-01-05T12:22:36;41.93;;;12.53;;
51987;SDS011;38003;52.012;4.346;2023-01-05T12:25:17;34.37;;;10.90;;
51987;SDS011;38003;52.012;4.346;2023-01-05T12:27:57;31.47;;;8.83;;
51987;SDS011;38003;52.012;4.346;2023-01-05T12:31:02;31.57;;;9.53;;
51987;SDS011;38003;52.012;4.346;2023-01-05T12:34:05;32.50;;;10.80;;
51987;SDS011;38003;52.012;4.346;2023-01-05T12:36:45;31.73;;;9.83;;
51987;SDS011;38003;52.012;4.346;2023-01-05T12:39:35;30.93;;;10.97;;
51987;SDS011;38003;52.012;4.346;2023-01-05T12:42:29;29.53;;;11.17;;
51987;SDS011;38003;52.012;4.346;2023-01-05T12:48:41;31.87;;;8.57;;
51987;SDS011;38003;52.012;4.346;2023-01-05T12:51:15;32.70;;;10.73;;
51987;SDS011;38003;52.012;4.346;2023-01-05T12:53:49;40.13;;;10.60;;
51987;SDS011;38003;52.012;4.346;2023-01-05T12:56:22;32.37;;;10.27;;
51987;SDS011;38003;52.012;4.346;2023-01-05T12:58:58;33.07;;;8.60;;
51987;SDS011;38003;52.012;4.346;2023-01-05T13:01:34;29.57;;;7.30;;
51987;SDS011;38003;52.012;4.346;2023-01-05T13:04:09;34.50;;;8.70;;
51987;SDS011;38003;52.012;4.346;2023-01-05T13:06:50;23.57;;;6.70;;
51987;SDS011;38003;52.012;4.346;2023-01-05T13:09:22;31.77;;;8.87;;
51987;SDS011;38003;52.012;4.346;2023-01-05T13:11:54;32.47;;;7.63;;
51987;SDS011;38003;52.012;4.346;2023-01-05T13:14:28;31.00;;;7.50;;
51987;SDS011;38003;52.012;4.346;2023-01-05T13:17:00;30.47;;;8.20;;
51987;SDS011;38003;52.012;4.346;2023-01-05T13:19:33;23.73;;;7.13;;
51987;SDS011;38003;52.012;4.346;2023-01-05T13:22:04;31.60;;;7.33;;
51987;SDS011;38003;52.012;4.346;2023-01-05T13:24:37;30.57;;;6.87;;
51987;SDS011;38003;52.012;4.346;2023-01-05T13:27:12;30.63;;;7.50;;
51987;SDS011;38003;52.012;4.346;2023-01-05T13:29:44;25.17;;;5.73;;
51987;SDS011;38003;52.012;4.346;2023-01-05T13:32:21;25.83;;;6.30;;
51987;SDS011;38003;52.012;4.346;2023-01-05T13:35:07;29.03;;;6.30;;
51987;SDS011;38003;52.012;4.346;2023-01-05T13:41:12;26.60;;;8.47;;
51987;SDS011;38003;52.012;4.346;2023-01-05T13:44:08;31.23;;;8.73;;
51987;SDS011;38003;52.012;4.346;2023-01-05T13:47:10;32.90;;;12.73;;
51987;SDS011;38003;52.012;4.346;2023-01-05T13:52:55;42.53;;;31.20;;
51987;SDS011;38003;52.012;4.346;2023-01-05T13:55:31;37.10;;;32.03;;
51987;SDS011;38003;52.012;4.346;2023-01-05T13:58:04;53.77;;;48.10;;
51987;SDS011;38003;52.012;4.346;2023-01-05T14:00:38;49.20;;;44.57;;
51987;SDS011;38003;52.012;4.346;2023-01-05T14:03:15;70.97;;;65.80;;
51987;SDS011;38003;52.012;4.346;2023-01-05T14:05:50;73.30;;;67.40;;
51987;SDS011;38003;52.012;4.346;2023-01-05T14:08:21;59.53;;;53.90;;
51987;SDS011;38003;52.012;4.346;2023-01-05T14:11:10;67.17;;;61.60;;
51987;SDS011;38003;52.012;4.346;2023-01-05T14:13:41;89.27;;;83.23;;
51987;SDS011;38003;52.012;4.346;2023-01-05T14:19:25;92.93;;;85.93;;
51987;SDS011;38003;52.012;4.346;2023-01-05T14:22:22;125.37;;;117.00;;
51987;SDS011;38003;52.012;4.346;2023-01-05T14:34:13;56.30;;;51.80;;
51987;SDS011;38003;52.012;4.346;2023-01-05T14:36:58;66.03;;;60.70;;
51987;SDS011;38003;52.012;4.346;2023-01-05T14:39:30;54.27;;;49.97;;
51987;SDS011;38003;52.012;4.346;2023-01-05T14:42:05;61.23;;;55.93;;
51987;SDS011;38003;52.012;4.346;2023-01-05T14:44:43;69.53;;;64.57;;
51987;SDS011;38003;52.012;4.346;2023-01-05T14:47:15;85.27;;;79.80;;
51987;SDS011;38003;52.012;4.346;2023-01-05T14:49:50;82.57;;;77.20;;
51987;SDS011;38003;52.012;4.346;2023-01-05T14:55:21;149.33;;;141.00;;
51987;SDS011;38003;52.012;4.346;2023-01-05T14:58:04;142.63;;;134.67;;
51987;SDS011;38003;52.012;4.346;2023-01-05T15:00:40;128.53;;;121.43;;
51987;SDS011;38003;52.012;4.346;2023-01-05T15:03:18;182.03;;;172.87;;
51987;SDS011;38003;52.012;4.346;2023-01-05T15:05:58;190.80;;;181.03;;
51987;SDS011;38003;52.012;4.346;2023-01-05T15:08:41;228.60;;;217.40;;
51987;SDS011;38003;52.012;4.346;2023-01-05T15:11:42;232.87;;;221.67;;
51987;SDS011;38003;52.012;4.346;2023-01-05T15:14:30;236.97;;;225.50;;
51987;SDS011;38003;52.012;4.346;2023-01-05T15:20:30;278.50;;;265.77;;
51987;SDS011;38003;52.012;4.346;2023-01-05T15:23:25;271.10;;;258.20;;